Time;durP1;ratioP1;P1;durP2;ratioP2;P2;SDS_P1;SDS_P2;PMS_P1;PMS_P2;Temp;Humidity;BMP_temperature;BMP_pressure;BME280_temperature;BME280_humidity;BME280_pressure;Samples;Min_cycle;Max_cycle;Signal;HPM_P1;HPM_P2
2022/07/01 04:16:46;;;;;;;3.63;1.38;;;;;;;14.69;100.00;100435.66;5264228;23;20052;-75
2022/07/01 04:19:14;;;;;;;2.47;1.20;;;;;;;14.66;100.00;100426.13;4896332;29;20120;-74
2022/07/01 04:24:24;;;;;;;2.30;1.15;;;;;;;14.68;100.00;100413.38;4896708;29;20044;-74
2022/07/01 04:26:51;;;;;;;2.97;1.08;;;;;;;14.62;100.00;100423.03;4896363;29;20024;-74
2022/07/01 04:29:16;;;;;;;4.80;1.52;;;;;;;14.67;100.00;100422.47;4918379;23;20055;-74
2022/07/01 04:31:42;;;;;;;2.80;1.85;;;;;;;14.69;100.00;100422.25;4915144;29;20413;-74
2022/07/01 04:34:08;;;;;;;1.92;1.10;;;;;;;14.69;100.00;100417.72;4915594;29;20393;-74
2022/07/01 04:36:34;;;;;;;5.93;1.58;;;;;;;14.66;100.00;100435.00;4915110;29;20409;-74
2022/07/01 04:39:00;;;;;;;1.58;1.00;;;;;;;14.64;100.00;100437.06;4895647;29;20123;-74
2022/07/01 04:44:10;;;;;;;3.25;1.77;;;;;;;14.60;100.00;100432.28;4877632;29;20066;-73
2022/07/01 04:46:35;;;;;;;3.70;1.73;;;;;;;14.57;100.00;100435.34;4877520;29;20035;-74
2022/07/01 04:49:01;;;;;;;4.97;1.85;;;;;;;14.59;100.00;100442.16;4877094;29;20067;-73
2022/07/01 04:51:28;;;;;;;7.72;1.98;;;;;;;14.56;100.00;100439.06;4877498;29;20049;-73
2022/07/01 04:53:53;;;;;;;2.38;1.70;;;;;;;14.53;100.00;100442.13;4876298;29;20510;-73
2022/07/01 04:56:19;;;;;;;4.18;1.52;;;;;;;14.55;100.00;100453.50;4877527;29;20033;-73
2022/07/01 04:58:45;;;;;;;4.85;1.70;;;;;;;14.54;100.00;100460.72;4877042;29;20048;-73
2022/07/01 05:01:11;;;;;;;4.50;1.70;;;;;;;14.57;100.00;100457.63;4877513;29;20504;-73
2022/07/01 05:03:36;;;;;;;5.13;2.10;;;;;;;14.54;100.00;100444.63;4877194;29;20041;-74
2022/07/01 05:06:02;;;;;;;4.53;1.88;;;;;;;14.55;100.00;100429.38;4877352;29;20407;-73
2022/07/01 05:08:28;;;;;;;5.05;1.90;;;;;;;14.59;100.00;100431.44;4876754;29;20037;-73
2022/07/01 05:10:53;;;;;;;6.00;2.03;;;;;;;14.55;100.00;100429.38;4876767;29;20052;-73
2022/07/01 05:13:19;;;;;;;3.45;1.80;;;;;;;14.54;100.00;100447.31;4877599;29;20065;-74
2022/07/01 05:15:44;;;;;;;4.50;2.40;;;;;;;14.57;100.00;100454.94;4877484;29;20124;-73
2022/07/01 05:23:37;;;;;;;3.72;2.38;;;;;;;14.64;100.00;100444.28;4876978;29;20053;-73
2022/07/01 05:26:03;;;;;;;6.13;2.38;;;;;;;14.70;100.00;100423.91;4875828;29;20041;-74
2022/07/01 05:28:29;;;;;;;4.43;2.25;;;;;;;14.69;100.00;100431.13;4876988;29;20045;-73
2022/07/01 05:30:55;;;;;;;5.32;2.45;;;;;;;14.68;100.00;100434.84;4877639;29;20108;-74
2022/07/01 05:33:21;;;;;;;6.97;3.47;;;;;;;14.64;100.00;100434.38;4876974;29;20037;-74
2022/07/01 05:35:49;;;;;;;10.30;4.65;;;;;;;14.63;100.00;100448.81;4876436;29;20507;-74
2022/07/01 05:38:14;;;;;;;3.53;2.60;;;;;;;14.63;100.00;100451.50;4876026;29;20049;-73
2022/07/01 05:40:40;;;;;;;5.28;3.17;;;;;;;14.65;100.00;100459.34;4876676;29;20064;-75
2022/07/01 05:43:05;;;;;;;7.40;3.10;;;;;;;14.65;100.00;100462.84;4877931;29;20075;-75
2022/07/01 05:45:31;;;;;;;6.25;2.90;;;;;;;14.65;100.00;100457.47;4880325;29;20061;-75
2022/07/01 05:47:56;;;;;;;5.15;2.80;;;;;;;14.68;100.00;100455.47;4880477;29;20041;-75
2022/07/01 05:50:22;;;;;;;4.70;3.13;;;;;;;14.66;100.00;100455.63;4878729;29;20044;-75
2022/07/01 05:52:48;;;;;;;4.80;2.90;;;;;;;14.72;100.00;100454.84;4880088;29;20100;-67
2022/07/01 05:55:13;;;;;;;4.43;2.83;;;;;;;14.67;100.00;100451.94;4880248;29;20052;-67
2022/07/01 05:57:39;;;;;;;6.85;3.33;;;;;;;14.66;100.00;100469.84;4880451;29;20120;-67
2022/07/01 06:00:05;;;;;;;6.40;3.28;;;;;;;14.64;100.00;100481.81;4878625;29;20757;-67
2022/07/01 06:02:37;;;;;;;6.57;3.30;;;;;;;14.64;100.00;100488.00;4879987;29;20522;-67
2022/07/01 06:05:03;;;;;;;5.43;3.55;;;;;;;14.63;100.00;100480.16;4878598;29;20036;-67
2022/07/01 06:07:29;;;;;;;4.63;2.95;;;;;;;14.63;100.00;100490.88;4880087;29;20041;-68
2022/07/01 06:09:55;;;;;;;5.28;3.30;;;;;;;14.66;100.00;100491.31;4879721;29;20037;-68
2022/07/01 06:12:21;;;;;;;8.48;3.80;;;;;;;14.69;100.00;100498.16;4879975;29;20387;-68
2022/07/01 06:14:46;;;;;;;7.20;3.20;;;;;;;14.72;100.00;100502.28;4879845;29;20041;-68
2022/07/01 06:17:13;;;;;;;7.60;3.88;;;;;;;14.74;100.00;100497.56;4879706;29;20049;-67
2022/07/01 06:19:38;;;;;;;7.78;4.03;;;;;;;14.71;100.00;100484.53;4879534;29;20135;-68
2022/07/01 06:22:04;;;;;;;5.78;3.40;;;;;;;14.82;100.00;100484.03;4885393;29;20119;-68
2022/07/01 06:24:30;;;;;;;10.82;3.75;;;;;;;14.86;100.00;100470.00;4898438;29;20040;-68
2022/07/01 06:26:56;;;;;;;5.97;3.50;;;;;;;14.96;100.00;100482.25;4898119;29;20136;-68
2022/07/01 06:29:21;;;;;;;9.55;4.10;;;;;;;15.02;100.00;100494.88;4897982;29;20036;-68
2022/07/01 06:31:46;;;;;;;7.70;3.83;;;;;;;15.08;100.00;100486.06;4897976;29;20052;-68
2022/07/01 06:34:12;;;;;;;6.30;4.13;;;;;;;15.09;100.00;100485.84;4898382;29;20040;-68
2022/07/01 06:36:38;;;;;;;6.65;3.72;;;;;;;15.17;100.00;100493.72;4898021;29;20115;-68
2022/07/01 06:39:03;;;;;;;8.23;4.10;;;;;;;15.26;100.00;100502.47;4897918;29;20076;-68
2022/07/01 06:41:29;;;;;;;9.65;3.65;;;;;;;15.19;100.00;100496.22;4896700;29;20072;-68
2022/07/01 06:43:59;;;;;;;5.35;3.40;;;;;;;15.24;100.00;100498.31;4898011;29;20040;-68
2022/07/01 06:46:26;;;;;;;8.75;3.60;;;;;;;15.22;100.00;100505.75;4896631;29;20067;-68
2022/07/01 06:48:51;;;;;;;6.90;3.63;;;;;;;15.22;100.00;100501.19;4897719;29;20115;-68
2022/07/01 06:51:17;;;;;;;6.65;3.60;;;;;;;15.21;100.00;100502.22;4897887;29;20139;-68
2022/07/01 06:53:44;;;;;;;6.88;3.20;;;;;;;15.14;100.00;100504.88;4897796;29;20405;-67
2022/07/01 06:56:11;;;;;;;7.87;3.57;;;;;;;15.20;100.00;100503.25;4897167;29;20728;-67
2022/07/01 06:58:37;;;;;;;7.90;3.60;;;;;;;15.18;100.00;100510.66;4896710;29;20068;-68
2022/07/01 07:01:03;;;;;;;7.65;3.78;;;;;;;15.15;100.00;100500.34;4897221;29;20059;-68
2022/07/01 07:03:29;;;;;;;5.82;3.42;;;;;;;15.20;100.00;100505.94;4897563;29;20041;-68
2022/07/01 07:05:54;;;;;;;5.20;3.40;;;;;;;15.09;100.00;100507.31;4897343;29;20123;-68
2022/07/01 07:08:20;;;;;;;6.43;2.67;;;;;;;15.07;100.00;100512.06;4897064;29;20132;-67
2022/07/01 07:10:45;;;;;;;3.92;2.55;;;;;;;15.06;100.00;100506.88;4897056;29;20084;-68
2022/07/01 07:13:10;;;;;;;6.50;3.45;;;;;;;15.11;100.00;100504.44;4897315;29;20049;-68
2022/07/01 07:15:36;;;;;;;8.27;2.83;;;;;;;15.13;100.00;100513.13;4897463;29;20056;-68
2022/07/01 07:18:02;;;;;;;4.43;2.90;;;;;;;15.11;100.00;100517.84;4897291;29;20045;-68
2022/07/01 07:20:28;;;;;;;5.13;2.75;;;;;;;15.11;100.00;100515.16;4896580;29;20459;-68
2022/07/01 07:22:53;;;;;;;4.75;2.75;;;;;;;15.11;100.00;100504.44;4896645;29;20103;-68
2022/07/01 07:25:20;;;;;;;7.13;3.00;;;;;;;15.13;100.00;100513.13;4897015;29;20078;-68
2022/07/01 07:27:46;;;;;;;9.38;4.43;;;;;;;15.19;100.00;100520.38;4897431;29;20474;-68
2022/07/01 07:30:16;;;;;;;4.70;2.72;;;;;;;15.20;100.00;100516.69;4896055;29;20049;-68
2022/07/01 07:32:41;;;;;;;5.32;2.97;;;;;;;15.21;100.00;100507.59;4897407;29;20045;-68
2022/07/01 07:35:08;;;;;;;4.05;2.55;;;;;;;15.28;100.00;100510.31;4896022;29;20042;-67
2022/07/01 07:37:33;;;;;;;3.85;2.72;;;;;;;15.37;100.00;100509.13;4895528;29;20045;-54
2022/07/01 07:40:00;;;;;;;5.35;2.28;;;;;;;15.33;100.00;100497.97;4895709;29;20040;-53
2022/07/01 07:42:27;;;;;;;4.32;2.50;;;;;;;15.32;100.00;100499.00;4896873;29;20028;-55
2022/07/01 07:44:53;;;;;;;4.43;2.15;;;;;;;15.42;100.00;100496.78;4896826;29;20116;-68
2022/07/01 07:47:18;;;;;;;4.22;2.55;;;;;;;15.43;100.00;100501.09;4910333;29;20550;-68
2022/07/01 07:49:44;;;;;;;4.65;2.67;;;;;;;15.34;100.00;100528.31;4905928;29;20036;-67
2022/07/01 07:52:09;;;;;;;4.20;2.20;;;;;;;15.23;100.00;100532.38;4913830;29;20414;-68
2022/07/01 07:54:35;;;;;;;3.67;2.42;;;;;;;15.18;100.00;100529.44;4913739;29;20176;-68
2022/07/01 07:57:00;;;;;;;4.78;2.72;;;;;;;15.07;100.00;100532.69;4914040;29;20115;-68
2022/07/01 07:59:26;;;;;;;5.63;2.60;;;;;;;15.08;100.00;100537.03;4913269;29;20047;-67
2022/07/01 08:01:51;;;;;;;4.90;2.95;;;;;;;15.05;100.00;100542.75;4914436;29;20068;-68
2022/07/01 08:04:17;;;;;;;11.35;6.32;;;;;;;14.98;100.00;100540.03;4915368;29;20068;-67
2022/07/01 08:06:42;;;;;;;6.03;3.22;;;;;;;14.89;100.00;100539.34;4914875;29;20459;-68
2022/07/01 08:09:08;;;;;;;4.10;3.03;;;;;;;14.82;100.00;100543.00;4915540;29;20046;-68
2022/07/01 08:11:33;;;;;;;6.25;3.58;;;;;;;14.77;100.00;100554.31;4915673;29;20127;-68
2022/07/01 08:13:59;;;;;;;6.28;3.10;;;;;;;14.78;100.00;100547.09;4915303;29;20044;-68
2022/07/01 08:16:24;;;;;;;5.28;2.78;;;;;;;14.87;100.00;100554.00;4915634;29;20080;-68
2022/07/01 08:18:50;;;;;;;4.35;3.10;;;;;;;14.83;100.00;100556.22;4914577;29;20076;-68
2022/07/01 08:21:16;;;;;;;4.20;2.55;;;;;;;14.84;100.00;100563.25;4915465;29;20040;-68
2022/07/01 08:23:41;;;;;;;8.68;3.30;;;;;;;14.86;100.00;100565.72;4915458;29;20095;-68
2022/07/01 08:26:07;;;;;;;4.70;2.85;;;;;;;14.91;100.00;100564.13;4924886;29;20033;-69
2022/07/01 08:28:32;;;;;;;6.88;2.90;;;;;;;14.89;100.00;100576.91;4901967;29;20434;-68
2022/07/01 08:30:57;;;;;;;4.32;2.90;;;;;;;14.96;100.00;100587.69;4915945;29;20066;-68
2022/07/01 08:33:23;;;;;;;4.57;2.72;;;;;;;15.03;100.00;100598.47;4915697;29;20438;-69
2022/07/01 08:35:49;;;;;;;5.03;3.30;;;;;;;15.15;100.00;100596.94;4912732;29;20139;-66
2022/07/01 08:38:14;;;;;;;6.85;2.90;;;;;;;15.23;100.00;100587.91;4913739;29;20044;-67
2022/07/01 08:40:40;;;;;;;6.43;3.28;;;;;;;15.33;100.00;100583.03;4912860;29;20050;-68
2022/07/01 08:43:07;;;;;;;6.53;3.05;;;;;;;15.45;100.00;100594.84;4914675;29;20044;-67
2022/07/01 08:45:37;;;;;;;6.28;3.00;;;;;;;15.62;100.00;100592.72;4914228;29;20047;-57
2022/07/01 08:48:03;;;;;;;9.10;4.97;;;;;;;15.76;100.00;100605.19;4915010;29;20040;-62
2022/07/01 08:50:36;;;;;;;8.25;4.43;;;;;;;15.90;100.00;100609.59;4914909;29;20036;-61
2022/07/01 08:53:03;;;;;;;7.22;3.53;;;;;;;16.08;100.00;100608.25;4913724;29;20401;-62
2022/07/01 08:55:28;;;;;;;5.35;3.30;;;;;;;16.14;100.00;100602.91;4914952;29;20043;-61
2022/07/01 08:57:54;;;;;;;5.55;3.30;;;;;;;16.24;100.00;100597.16;4913653;29;20044;-63
2022/07/01 09:00:20;;;;;;;4.43;2.90;;;;;;;16.17;100.00;100598.97;4915283;29;20043;-65
2022/07/01 09:02:54;;;;;;;4.22;2.58;;;;;;;16.17;100.00;100601.66;4915234;29;20040;-64
2022/07/01 09:05:21;;;;;;;6.22;2.60;;;;;;;16.19;99.88;100595.06;4913977;29;20040;-65
2022/07/01 09:07:48;;;;;;;3.22;2.67;;;;;;;16.24;99.58;100594.47;4915281;29;20491;-64
2022/07/01 09:10:19;;;;;;;4.53;2.25;;;;;;;16.34;98.12;100604.84;4914839;29;20066;-65
2022/07/01 09:12:46;;;;;;;4.30;2.55;;;;;;;16.47;96.24;100603.00;4915189;29;20063;-66
2022/07/01 09:15:29;;;;;;;6.28;2.88;;;;;;;16.45;96.81;100602.41;4914992;29;20513;-65
2022/07/01 09:18:03;;;;;;;3.03;2.30;;;;;;;16.49;96.84;100600.09;4914266;29;20116;-66
2022/07/01 09:20:31;;;;;;;5.53;2.10;;;;;;;16.64;95.41;100602.66;4918256;29;20040;-65
2022/07/01 09:23:10;;;;;;;4.10;2.60;;;;;;;16.70;95.88;100599.16;4918440;29;20042;-64
2022/07/01 09:25:50;;;;;;;5.75;2.63;;;;;;;17.16;97.48;100606.44;4918379;29;20044;-65
2022/07/01 09:28:21;;;;;;;3.28;2.17;;;;;;;17.48;90.53;100605.59;4916782;29;20048;-65
2022/07/01 09:30:49;;;;;;;2.63;1.95;;;;;;;17.50;88.90;100608.88;4918313;29;20514;-64
2022/07/01 09:33:17;;;;;;;4.70;2.03;;;;;;;17.45;86.77;100608.69;4918467;29;20421;-63
2022/07/01 09:35:45;;;;;;;4.10;1.70;;;;;;;17.56;86.33;100610.75;4918538;29;20155;-64
2022/07/01 09:38:13;;;;;;;3.20;2.10;;;;;;;17.43;86.15;100613.47;4918107;29;20118;-65
2022/07/01 09:41:03;;;;;;;2.55;2.00;;;;;;;17.36;87.25;100609.94;4918002;29;20421;-66
2022/07/01 09:43:34;;;;;;;3.60;2.00;;;;;;;17.38;87.20;100610.56;4917999;29;20509;-65
2022/07/01 09:46:02;;;;;;;5.45;1.70;;;;;;;17.24;82.41;100620.50;4917940;29;20406;-65
2022/07/01 09:48:48;;;;;;;14.48;6.45;;;;;;;17.23;83.48;100613.47;4917696;29;20068;-63
2022/07/01 09:51:15;;;;;;;4.75;2.90;;;;;;;17.13;80.49;100606.84;4917454;29;20056;-65
2022/07/01 09:53:41;;;;;;;6.18;1.80;;;;;;;17.25;84.42;100611.41;4918543;29;20044;-66
2022/07/01 09:56:07;;;;;;;3.50;2.00;;;;;;;17.43;83.55;100607.25;4918066;29;20036;-66
2022/07/01 09:58:33;;;;;;;2.65;2.05;;;;;;;17.93;83.72;100604.84;4917849;29;20090;-66
2022/07/01 10:00:58;;;;;;;3.50;2.15;;;;;;;18.36;85.73;100614.00;4917744;29;20047;-65
2022/07/01 10:03:26;;;;;;;2.70;1.88;;;;;;;18.84;81.30;100607.31;4917811;29;20040;-66
2022/07/01 10:06:06;;;;;;;3.30;1.65;;;;;;;19.05;77.99;100606.13;4917667;29;20099;-66
2022/07/01 10:08:46;;;;;;;3.42;1.75;;;;;;;19.02;75.46;100615.50;4917348;29;20127;-67
2022/07/01 10:11:34;;;;;;;4.93;2.03;;;;;;;19.33;75.28;100613.78;4917653;29;20047;-67
2022/07/01 10:14:06;;;;;;;4.72;1.75;;;;;;;18.81;74.76;100615.84;4917877;29;20063;-66
2022/07/01 10:16:32;;;;;;;2.95;1.70;;;;;;;18.52;75.96;100623.50;4917676;29;20031;-66
2022/07/01 10:18:58;;;;;;;2.10;1.52;;;;;;;18.36;75.82;100624.81;4917080;29;20039;-66
2022/07/01 10:21:29;;;;;;;3.28;2.10;;;;;;;18.46;78.14;100623.53;4917525;29;20039;-68
2022/07/01 10:24:14;;;;;;;6.93;1.70;;;;;;;18.59;74.71;100623.44;4917527;29;20370;-67
2022/07/01 10:26:41;;;;;;;4.90;2.17;;;;;;;18.67;71.63;100599.75;4916133;29;20507;-68
2022/07/01 10:29:32;;;;;;;3.47;1.80;;;;;;;18.90;74.26;100619.94;4917052;29;20501;-69
2022/07/01 10:32:02;;;;;;;6.18;2.03;;;;;;;19.31;74.93;100624.81;4917238;29;20067;-66
2022/07/01 10:34:39;;;;;;;6.28;1.80;;;;;;;19.92;78.68;100624.00;4917313;29;20115;-64
2022/07/01 10:37:10;;;;;;;2.63;1.70;;;;;;;20.27;71.15;100620.66;4917157;29;20032;-64
2022/07/01 10:39:54;;;;;;;2.65;1.50;;;;;;;20.21;68.46;100627.84;4916862;29;20119;-63
2022/07/01 10:42:20;;;;;;;5.30;1.75;;;;;;;19.87;68.41;100617.63;4917223;29;20036;-62
2022/07/01 10:45:03;;;;;;;3.13;1.88;;;;;;;20.32;70.14;100627.06;4917208;29;20091;-64
2022/07/01 10:47:29;;;;;;;2.97;1.75;;;;;;;20.16;68.68;100622.28;4916853;29;20040;-65
2022/07/01 10:49:59;;;;;;;2.10;1.70;;;;;;;20.23;71.98;100623.03;4916652;29;20072;-65
2022/07/01 10:52:25;;;;;;;4.13;2.38;;;;;;;20.11;69.38;100632.94;4916930;29;20036;-65
2022/07/01 10:54:55;;;;;;;4.25;1.85;;;;;;;20.24;71.32;100623.84;4916906;29;20028;-65
2022/07/01 10:57:33;;;;;;;3.25;1.80;;;;;;;20.39;69.59;100618.84;4916916;29;20075;-65
2022/07/01 10:59:59;;;;;;;4.18;1.75;;;;;;;20.86;66.95;100616.31;4916412;29;20040;-65
2022/07/01 11:02:32;;;;;;;6.95;1.60;;;;;;;21.51;66.25;100626.31;4916655;29;20047;-63
2022/07/01 11:05:10;;;;;;;3.80;1.60;;;;;;;21.51;61.59;100618.19;4917411;29;20125;-64
2022/07/01 11:07:36;;;;;;;;;;;;;;;22.26;59.64;100612.78;4917197;29;20090;-63
2022/07/01 11:10:05;;;;;;;3.08;1.20;;;;;;;22.90;56.27;100607.22;4916153;29;19942;-64
2022/07/01 11:12:31;;;;;;;1.95;1.25;;;;;;;23.47;53.60;100605.13;4916439;29;20028;-65
2022/07/01 11:15:01;;;;;;;3.70;1.23;;;;;;;23.10;50.53;100606.72;4916464;29;20130;-64
2022/07/01 11:17:27;;;;;;;5.70;1.45;;;;;;;23.82;54.20;100612.97;4916362;29;20123;-60
2022/07/01 11:19:58;;;;;;;4.13;1.50;;;;;;;24.17;55.83;100617.22;4915976;29;20048;-62
2022/07/01 11:22:32;;;;;;;1.90;1.30;;;;;;;24.17;53.92;100613.66;4915081;29;20040;-64
2022/07/01 11:25:01;;;;;;;2.28;1.20;;;;;;;24.35;49.02;100602.47;4916105;29;20036;-63
2022/07/01 11:27:27;;;;;;;2.20;1.30;;;;;;;24.59;52.71;100606.56;4909105;29;20041;-64
2022/07/01 11:29:59;;;;;;;2.47;1.40;;;;;;;24.42;53.29;100605.00;4888312;29;20052;-65
2022/07/01 11:32:29;;;;;;;3.05;1.33;;;;;;;24.03;51.47;100611.34;4896841;29;20045;-64
2022/07/01 11:34:56;;;;;;;2.05;1.27;;;;;;;24.17;49.82;100603.59;4897125;29;20157;-65
2022/07/01 11:40:11;;;;;;;1.38;1.27;;;;;;;22.79;51.53;100589.88;4897777;29;20060;-65
2022/07/01 11:42:36;;;;;;;1.42;1.00;;;;;;;22.18;50.60;100595.00;4896419;29;20048;-64
2022/07/01 11:45:03;;;;;;;1.63;1.08;;;;;;;21.83;53.83;100605.06;4895376;29;20037;-65
2022/07/01 11:47:29;;;;;;;2.30;1.50;;;;;;;21.63;54.27;100600.84;4896810;29;20438;-64
2022/07/01 11:49:56;;;;;;;4.70;1.50;;;;;;;21.35;54.39;100608.91;4896190;29;20403;-62
2022/07/01 11:52:23;;;;;;;3.07;1.27;;;;;;;21.17;54.30;100603.53;4896499;29;20037;-61
2022/07/01 11:54:50;;;;;;;3.60;1.35;;;;;;;20.88;54.89;100602.56;4896533;29;20451;-64
2022/07/01 11:57:21;;;;;;;4.45;1.67;;;;;;;20.70;55.80;100603.47;4896479;29;20044;-63
2022/07/01 11:59:48;;;;;;;2.28;1.48;;;;;;;20.62;58.10;100607.34;4896043;29;20044;-62
2022/07/01 12:02:15;;;;;;;1.83;1.33;;;;;;;20.53;58.07;100601.41;4896485;29;20548;-62
2022/07/01 12:04:42;;;;;;;3.08;1.85;;;;;;;20.45;58.30;100601.72;4896344;29;20056;-63
2022/07/01 12:07:10;;;;;;;3.10;1.70;;;;;;;20.48;56.99;100605.88;4896631;29;20407;-64
2022/07/01 12:09:35;;;;;;;2.55;1.52;;;;;;;20.48;56.86;100597.75;4895755;29;20038;-61
2022/07/01 12:12:01;;;;;;;4.80;1.45;;;;;;;20.51;57.94;100600.00;4910920;29;20044;-64
2022/07/01 12:14:32;;;;;;;2.95;1.40;;;;;;;20.53;55.57;100598.69;4896258;29;20048;-64
2022/07/01 12:17:00;;;;;;;5.72;1.67;;;;;;;20.66;55.72;100604.97;4896581;29;20387;-64
2022/07/01 12:19:39;;;;;;;2.10;1.50;;;;;;;20.69;56.19;100599.94;4895636;29;20048;-64
2022/07/01 12:22:12;;;;;;;2.45;1.63;;;;;;;20.54;55.38;100602.25;4895092;29;20032;-69
2022/07/01 12:24:38;;;;;;;2.22;1.40;;;;;;;20.86;55.61;100598.22;4896123;29;20061;-68
2022/07/01 12:27:06;;;;;;;1.65;1.33;;;;;;;21.22;58.39;100600.97;4896302;29;20049;-69
2022/07/01 12:29:51;;;;;;;3.17;1.58;;;;;;;21.45;52.51;100600.16;4895256;29;20148;-69
2022/07/01 12:32:25;;;;;;;2.97;1.30;;;;;;;21.73;53.72;100600.28;4896160;29;20118;-69
2022/07/01 12:34:57;;;;;;;2.95;1.40;;;;;;;21.94;52.20;100593.38;4896498;29;20495;-69
2022/07/01 12:37:31;;;;;;;3.47;1.40;;;;;;;21.94;51.55;100593.38;4895972;29;20041;-69
2022/07/01 12:40:08;;;;;;;2.20;1.25;;;;;;;22.12;52.30;100579.69;4895364;29;20076;-69
2022/07/01 12:42:38;;;;;;;2.10;1.35;;;;;;;22.44;52.46;100576.50;4894707;29;20041;-69
2022/07/01 12:45:07;;;;;;;3.25;1.60;;;;;;;22.63;50.28;100571.69;4896277;29;20040;-69
2022/07/01 12:47:34;;;;;;;4.80;1.75;;;;;;;23.31;50.72;100575.25;4894849;29;20052;-69
2022/07/01 12:50:21;;;;;;;3.50;1.65;;;;;;;23.72;47.30;100565.78;4895179;29;20043;-69
2022/07/01 12:52:59;;;;;;;2.67;1.45;;;;;;;24.13;45.91;100566.28;4895023;29;20049;-70
2022/07/01 12:55:24;;;;;;;3.85;1.50;;;;;;;24.21;46.39;100569.38;4900043;29;20521;-69
2022/07/01 12:57:53;;;;;;;2.58;1.45;;;;;;;24.54;47.94;100567.56;4899952;29;20037;-69
2022/07/01 13:00:21;;;;;;;2.03;1.38;;;;;;;25.31;44.72;100572.56;4899190;29;20036;-69
2022/07/01 13:02:46;;;;;;;;;;;;;;;25.18;47.36;100573.03;4899884;29;20044;-69
2022/07/01 13:05:13;;;;;;;2.85;1.20;;;;;;;25.77;44.60;100574.75;4899394;29;19922;-69
2022/07/01 13:07:39;;;;;;;2.45;1.33;;;;;;;26.16;42.41;100570.53;4899294;29;20047;-70
2022/07/01 13:10:05;;;;;;;2.08;1.10;;;;;;;26.49;42.21;100571.19;4898975;29;20406;-69
2022/07/01 13:12:31;;;;;;;1.83;1.20;;;;;;;25.58;41.10;100575.19;4898630;29;20064;-69
2022/07/01 13:14:57;;;;;;;1.58;1.08;;;;;;;25.32;45.11;100576.13;4899894;29;20072;-69
2022/07/01 13:17:23;;;;;;;1.40;1.10;;;;;;;25.23;44.15;100577.66;4899719;29;20033;-69
2022/07/01 13:19:49;;;;;;;2.05;1.20;;;;;;;24.80;45.55;100574.06;4899488;29;20044;-69
2022/07/01 13:22:14;;;;;;;1.70;1.10;;;;;;;23.93;44.22;100578.56;4899756;29;20051;-69
2022/07/01 13:24:40;;;;;;;2.55;1.10;;;;;;;23.87;45.02;100574.16;4899325;29;20148;-69
2022/07/01 13:27:06;;;;;;;1.45;1.10;;;;;;;23.15;43.25;100569.59;4900071;29;20535;-69
2022/07/01 13:29:31;;;;;;;2.33;1.40;;;;;;;23.72;45.85;100576.66;4898009;29;20051;-69
2022/07/01 13:31:57;;;;;;;1.95;1.23;;;;;;;23.50;47.05;100579.31;4899502;29;20044;-69
2022/07/01 13:34:23;;;;;;;1.63;1.02;;;;;;;23.60;50.10;100581.34;4899354;29;20028;-70
2022/07/01 13:36:48;;;;;;;2.67;1.00;;;;;;;23.43;50.61;100584.13;4899383;29;20111;-69
2022/07/01 13:39:14;;;;;;;1.67;0.98;;;;;;;23.17;48.20;100574.75;4898981;29;20514;-70
2022/07/01 13:41:40;;;;;;;2.50;0.90;;;;;;;23.39;50.03;100574.81;4899359;29;20052;-69
2022/07/01 13:44:05;;;;;;;2.03;1.10;;;;;;;22.86;47.27;100568.84;4899320;29;20032;-69
2022/07/01 13:46:30;;;;;;;2.10;1.25;;;;;;;22.94;47.35;100564.88;4899200;29;20450;-69
2022/07/01 13:48:56;;;;;;;2.38;1.20;;;;;;;22.81;48.30;100566.00;4898847;29;20079;-69
2022/07/01 13:51:21;;;;;;;1.48;1.15;;;;;;;22.81;48.48;100574.16;4897788;29;20080;-69
2022/07/01 13:53:47;;;;;;;2.88;1.10;;;;;;;22.45;48.59;100572.72;4898995;29;20037;-68
2022/07/01 13:56:12;;;;;;;2.78;1.17;;;;;;;22.65;49.18;100564.94;4899162;29;20070;-69
2022/07/01 13:58:38;;;;;;;2.67;1.10;;;;;;;22.65;49.30;100570.34;4898560;29;20044;-69
2022/07/01 14:01:03;;;;;;;2.15;1.20;;;;;;;22.64;46.18;100578.75;4899046;29;20044;-69
2022/07/01 14:03:29;;;;;;;2.20;1.10;;;;;;;22.63;47.40;100563.53;4898384;29;20055;-69
2022/07/01 14:05:54;;;;;;;1.60;1.15;;;;;;;22.72;49.77;100567.50;4898777;29;20040;-69
2022/07/01 14:08:20;;;;;;;1.50;1.00;;;;;;;22.62;46.46;100572.72;4898943;29;20079;-68
2022/07/01 14:10:45;;;;;;;1.58;1.20;;;;;;;22.60;47.15;100572.16;4898889;29;20041;-69
2022/07/01 14:13:11;;;;;;;1.77;1.10;;;;;;;22.68;46.92;100563.59;4898995;29;20036;-68
2022/07/01 14:15:37;;;;;;;2.28;1.05;;;;;;;22.63;47.27;100579.81;4898711;29;20045;-69
2022/07/01 14:18:03;;;;;;;3.13;0.95;;;;;;;22.37;48.76;100582.06;4898566;29;20051;-68
2022/07/01 14:20:29;;;;;;;2.10;1.10;;;;;;;22.14;49.67;100577.56;4898416;29;20048;-69
2022/07/01 14:22:55;;;;;;;4.22;1.08;;;;;;;22.33;50.76;100578.19;4898539;29;20047;-69
2022/07/01 14:25:21;;;;;;;2.13;0.98;;;;;;;22.36;51.40;100583.13;4898661;29;20239;-69
2022/07/01 14:27:48;;;;;;;1.13;1.02;;;;;;;22.52;49.21;100583.41;4898478;29;20067;-69
2022/07/01 14:30:15;;;;;;;1.20;1.10;;;;;;;22.38;51.26;100586.44;4898054;29;20044;-69
2022/07/01 14:32:41;;;;;;;1.02;0.85;;;;;;;22.24;48.20;100586.97;4898755;29;20133;-69
2022/07/01 14:35:07;;;;;;;1.50;1.10;;;;;;;21.95;49.30;100584.19;4898471;29;20036;-69
2022/07/01 14:37:32;;;;;;;2.60;1.20;;;;;;;22.22;49.32;100589.91;4898310;29;20048;-68
2022/07/01 14:39:58;;;;;;;2.35;1.00;;;;;;;22.23;48.71;100588.84;4898040;29;20052;-68
2022/07/01 14:42:25;;;;;;;1.45;1.05;;;;;;;22.09;47.98;100598.31;4898395;29;20402;-68
2022/07/01 14:44:50;;;;;;;4.13;1.58;;;;;;;22.16;48.77;100597.13;4898112;29;20047;-69
2022/07/01 14:47:16;;;;;;;1.15;1.00;;;;;;;22.08;49.96;100611.03;4898107;29;20044;-68
2022/07/01 14:49:43;;;;;;;1.88;1.00;;;;;;;22.01;49.97;100607.63;4897642;29;20049;-69
2022/07/01 14:52:09;;;;;;;;;;;;;;;22.05;52.13;100616.94;4898700;29;20124;-69
2022/07/01 14:54:34;;;;;;;1.45;0.90;;;;;;;22.03;51.29;100612.81;4898032;29;19923;-69
2022/07/01 14:57:00;;;;;;;2.38;1.17;;;;;;;22.17;50.03;100604.22;4896687;29;20498;-69
2022/07/01 14:59:25;;;;;;;2.10;1.23;;;;;;;22.00;49.88;100607.88;4897535;29;20518;-69
2022/07/01 15:01:51;;;;;;;1.73;1.20;;;;;;;22.12;48.96;100608.72;4898002;29;20108;-68
2022/07/01 15:04:16;;;;;;;1.17;1.05;;;;;;;22.19;49.51;100606.69;4898027;29;20072;-68
2022/07/01 15:06:42;;;;;;;3.75;2.15;;;;;;;22.30;51.94;100603.09;4897740;29;20037;-68
2022/07/01 15:09:07;;;;;;;9.25;6.00;;;;;;;22.30;53.43;100603.09;4897488;29;20140;-68
2022/07/01 15:11:33;;;;;;;1.52;1.10;;;;;;;22.25;48.91;100602.19;4897792;29;20044;-68
2022/07/01 15:13:59;;;;;;;3.95;1.50;;;;;;;22.29;47.88;100598.72;4897756;29;20041;-68
2022/07/01 15:16:25;;;;;;;2.13;1.10;;;;;;;22.30;48.34;100592.25;4896676;29;20060;-68
2022/07/01 15:18:52;;;;;;;2.45;1.20;;;;;;;22.40;49.35;100597.84;4897191;29;20495;-68
2022/07/01 15:21:18;;;;;;;1.95;0.95;;;;;;;22.37;49.45;100603.78;4897615;29;20040;-68
2022/07/01 15:23:44;;;;;;;2.17;1.10;;;;;;;22.61;49.18;100600.94;4897530;29;20041;-68
2022/07/01 15:26:10;;;;;;;1.15;1.02;;;;;;;22.59;48.85;100600.38;4897336;29;20067;-68
2022/07/01 15:28:35;;;;;;;1.20;1.02;;;;;;;22.63;48.51;100612.41;4896888;29;20129;-68
2022/07/01 15:31:01;;;;;;;2.20;1.00;;;;;;;22.65;48.19;100615.69;4897350;29;20044;-69
2022/07/01 15:33:28;;;;;;;2.13;1.05;;;;;;;22.51;48.74;100609.75;4897292;29;20466;-68
2022/07/01 15:35:53;;;;;;;2.53;1.13;;;;;;;22.47;48.76;100620.25;4896146;29;20044;-68
2022/07/01 15:38:19;;;;;;;1.58;1.00;;;;;;;22.42;48.44;100619.31;4897143;29;20092;-69
2022/07/01 15:40:44;;;;;;;2.00;1.33;;;;;;;22.51;49.51;100619.78;4899802;29;20044;-69
2022/07/01 15:43:12;;;;;;;0.95;0.90;;;;;;;22.53;50.56;100612.22;4897531;29;20091;-68
2022/07/01 15:45:38;;;;;;;1.70;1.02;;;;;;;22.47;48.09;100619.44;4896989;29;20311;-68
2022/07/01 15:48:06;;;;;;;1.25;1.05;;;;;;;22.47;48.51;100612.09;4897012;29;20044;-68
2022/07/01 15:50:38;;;;;;;2.33;1.10;;;;;;;22.28;48.12;100616.06;4895358;29;20076;-69
2022/07/01 15:53:04;;;;;;;1.48;0.85;;;;;;;22.10;49.35;100608.09;4897077;29;20116;-69